Time;durP1;ratioP1;P1;durP2;ratioP2;P2;SDS_P1;SDS_P2;PMS_P1;PMS_P2;Temp;Humidity;BMP_temperature;BMP_pressure;BME280_temperature;BME280_humidity;BME280_pressure;Samples;Min_cycle;Max_cycle;Signal;HPM_P1;HPM_P2
2023/01/05 00:01:36;;;;;;;;;0.00;0.00;;;;;14.77;100.00;102109.69;5033183;28;46575;-76
2023/01/05 00:04:03;;;;;;;;;0.00;0.00;;;;;14.74;100.00;102104.31;5048986;28;45293;-77
2023/01/05 00:06:28;;;;;;;;;1.00;0.00;;;;;14.74;100.00;102114.94;5056090;28;45478;-74
2023/01/05 00:08:53;;;;;;;;;0.00;0.00;;;;;14.74;100.00;102115.81;5050020;28;45490;-75
2023/01/05 00:22:29;;;;;;;;;0.00;0.00;;;;;14.65;100.00;102111.28;5057822;28;45256;-74
2023/01/05 00:25:08;;;;;;;;;0.00;0.00;;;;;14.64;100.00;102117.44;5053126;28;45283;-76
2023/01/05 00:27:34;;;;;;;;;0.00;0.00;;;;;14.62;100.00;102110.34;5039963;28;45407;-75
2023/01/05 00:29:59;;;;;;;;;0.00;0.00;;;;;14.61;100.00;102117.44;5039584;28;45859;-75
2023/01/05 00:32:27;;;;;;;;;0.00;0.00;;;;;14.61;100.00;102125.41;5039771;28;45850;-76
2023/01/05 00:34:57;;;;;;;;;0.00;0.00;;;;;14.58;100.00;102116.47;5039863;28;45463;-75
2023/01/05 00:37:24;;;;;;;;;0.00;0.00;;;;;14.58;100.00;102119.13;5056304;28;45344;-75
2023/01/05 00:39:50;;;;;;;;;0.00;0.00;;;;;14.56;100.00;102123.53;5058095;28;45584;-75
2023/01/05 00:42:16;;;;;;;;;0.00;0.00;;;;;14.53;100.00;102113.75;5056425;28;46826;-76
2023/01/05 00:44:41;;;;;;;;;0.00;0.00;;;;;14.49;100.00;102114.59;5036358;28;45401;-76
2023/01/05 00:47:07;;;;;;;;;0.00;0.00;;;;;14.47;100.00;102120.69;5045212;28;46001;-76
2023/01/05 00:49:32;;;;;;;;;0.00;0.00;;;;;14.46;100.00;102124.25;5057505;28;45351;-76
2023/01/05 00:51:57;;;;;;;;;0.33;0.00;;;;;14.43;100.00;102127.72;5056028;28;45891;-75
2023/01/05 00:54:23;;;;;;;;;0.00;0.00;;;;;14.44;100.00;102136.63;5042980;28;45533;-74
2023/01/05 00:56:48;;;;;;;;;0.00;0.00;;;;;14.39;100.00;102137.44;5036177;28;45467;-77
2023/01/05 00:59:14;;;;;;;;;0.00;0.00;;;;;14.38;100.00;102130.34;5048695;28;45471;-75
2023/01/05 01:01:40;;;;;;;;;0.00;0.00;;;;;14.39;100.00;102136.53;5053703;28;46685;-75
2023/01/05 01:04:05;;;;;;;;;0.00;0.00;;;;;14.34;100.00;102131.16;5056864;28;47085;-74
2023/01/05 01:06:31;;;;;;;;;1.00;0.00;;;;;14.37;100.00;102144.47;5055320;28;52462;-75
2023/01/05 01:08:57;;;;;;;;;0.00;0.00;;;;;14.34;100.00;102135.56;5052615;28;45344;-74
2023/01/05 01:11:22;;;;;;;;;2.00;0.00;;;;;14.31;100.00;102131.09;5055230;28;46564;-76
2023/01/05 01:13:48;;;;;;;;;0.00;0.00;;;;;14.32;100.00;102142.59;5052115;28;45359;-76
2023/01/05 01:16:14;;;;;;;;;0.33;0.00;;;;;14.29;100.00;102138.16;5053204;28;45391;-76
2023/01/05 01:18:41;;;;;;;;;0.00;0.00;;;;;14.28;100.00;102132.81;5052620;28;45516;-75
2023/01/05 01:21:06;;;;;;;;;1.00;0.00;;;;;14.26;100.00;102126.56;5036124;28;46519;-76
2023/01/05 01:23:36;;;;;;;;;0.00;0.00;;;;;14.25;100.00;102116.81;5049413;28;45261;-74
2023/01/05 01:26:10;;;;;;;;;3.67;0.00;;;;;14.26;100.00;102126.56;5050331;28;45517;-75
2023/01/05 01:28:35;;;;;;;;;0.00;0.00;;;;;14.25;100.00;102124.78;5053275;28;45386;-74
2023/01/05 01:31:00;;;;;;;;;0.33;0.00;;;;;14.26;100.00;102129.22;5049054;28;54185;-75
2023/01/05 01:33:26;;;;;;;;;0.00;0.00;;;;;14.27;100.00;102123.91;5056807;28;45334;-75
2023/01/05 01:35:52;;;;;;;;;0.67;0.00;;;;;14.26;100.00;102122.13;5051894;28;45284;-76
2023/01/05 01:38:17;;;;;;;;;3.67;0.00;;;;;14.26;100.00;102126.56;5055750;28;54709;-75
2023/01/05 01:40:45;;;;;;;;;0.67;0.00;;;;;14.29;100.00;102127.53;5055701;28;62342;-76
2023/01/05 01:43:38;;;;;;;;;0.00;0.00;;;;;14.29;100.00;102121.31;5051334;28;45409;-75
2023/01/05 01:46:03;;;;;;;;;2.00;1.00;;;;;14.26;100.00;102123.91;5041562;28;45443;-74
2023/01/05 01:48:28;;;;;;;;;2.00;0.00;;;;;14.27;100.00;102131.88;5050499;28;45426;-74
2023/01/05 01:50:55;;;;;;;;;8.67;5.00;;;;;14.25;100.00;102130.09;5046725;28;55737;-75
2023/01/05 01:53:29;;;;;;;;;0.67;0.67;;;;;14.25;100.00;102138.06;5050731;28;56689;-76
2023/01/05 01:55:57;;;;;;;;;0.00;0.00;;;;;14.25;100.00;102133.63;5029061;28;45394;-76
2023/01/05 01:58:25;;;;;;;;;1.33;0.33;;;;;14.28;100.00;102139.03;5055663;28;45521;-78
2023/01/05 02:00:50;;;;;;;;;2.67;1.00;;;;;14.29;100.00;102142.56;5037754;28;46004;-78
2023/01/05 02:03:16;;;;;;;;;2.00;0.00;;;;;14.27;100.00;102138.97;5048186;28;54532;-74
2023/01/05 02:05:41;;;;;;;;;3.00;0.00;;;;;14.26;100.00;102135.41;5053473;28;45505;-78
2023/01/05 02:08:12;;;;;;;;;0.00;0.00;;;;;14.25;100.00;102138.06;5056589;28;52860;-74
2023/01/05 02:10:52;;;;;;;;;0.00;0.00;;;;;14.28;100.00;102143.44;5037868;28;45860;-78
2023/01/05 02:13:23;;;;;;;;;0.00;0.00;;;;;14.26;100.00;102142.50;5049725;28;45312;-75
2023/01/05 02:15:58;;;;;;;;;2.00;0.00;;;;;14.24;100.00;102144.25;5052280;28;45526;-75
2023/01/05 02:18:42;;;;;;;;;0.00;0.00;;;;;14.23;100.00;102148.69;5053158;28;46365;-76
2023/01/05 02:21:19;;;;;;;;;2.00;1.00;;;;;14.23;100.00;102147.78;5055892;28;46668;-74
2023/01/05 02:23:59;;;;;;;;;2.00;0.00;;;;;14.23;100.00;102145.13;5050316;28;45511;-75
2023/01/05 02:27:05;;;;;;;;;0.00;0.00;;;;;14.22;100.00;102154.88;5047226;28;46547;-76
2023/01/05 02:29:57;;;;;;;;;1.00;0.00;;;;;14.14;100.00;102146.75;5027109;28;45357;-76
2023/01/05 02:32:59;;;;;;;;;2.67;0.00;;;;;14.19;100.00;102159.22;5053002;28;45659;-76
2023/01/05 02:35:42;;;;;;;;;0.00;0.00;;;;;14.15;100.00;102159.16;5019804;28;45398;-75
2023/01/05 02:38:20;;;;;;;;;0.00;0.00;;;;;14.15;100.00;102156.50;5036953;28;45264;-74
2023/01/05 02:40:48;;;;;;;;;3.00;0.00;;;;;14.14;100.00;102152.06;5049602;28;45541;-75
2023/01/05 02:43:19;;;;;;;;;1.67;0.00;;;;;14.10;100.00;102146.66;5037494;28;45731;-74
2023/01/05 02:45:44;;;;;;;;;1.67;1.00;;;;;14.07;100.00;102146.63;5054958;28;45293;-75
2023/01/05 02:48:09;;;;;;;;;0.00;0.00;;;;;14.05;100.00;102151.00;5042647;28;53901;-76
2023/01/05 02:50:39;;;;;;;;;0.00;0.00;;;;;14.06;100.00;102152.78;5055388;28;45424;-75
2023/01/05 02:53:16;;;;;;;;;0.67;0.00;;;;;14.05;100.00;102149.22;5050163;28;45498;-76
2023/01/05 02:55:47;;;;;;;;;2.33;0.00;;;;;14.01;100.00;102147.41;5051689;28;45430;-76
2023/01/05 02:58:30;;;;;;;;;1.00;0.00;;;;;13.97;100.00;102140.25;5037998;28;45747;-77
2023/01/05 03:01:00;;;;;;;;;1.00;0.00;;;;;13.98;100.00;102138.47;5054989;28;45374;-76
2023/01/05 03:03:32;;;;;;;;;4.00;0.00;;;;;14.00;100.00;102139.38;5055919;28;46661;-74
2023/01/05 03:06:03;;;;;;;;;0.00;0.00;;;;;14.01;100.00;102150.06;5053855;28;45385;-74
2023/01/05 03:08:31;;;;;;;;;0.00;0.00;;;;;14.02;100.00;102145.66;5038024;28;45394;-74
2023/01/05 03:13:48;;;;;;;;;4.00;0.00;;;;;14.06;100.00;102144.81;5054795;28;45814;-74
2023/01/05 03:16:20;;;;;;;;;2.00;0.00;;;;;14.10;100.00;102150.22;5037610;28;46106;-75
2023/01/05 03:35:30;;;;;;;;;0.00;0.00;;;;;14.16;100.00;102147.66;5054386;28;45887;-75
2023/01/05 03:38:14;;;;;;;;;1.00;1.00;;;;;14.22;100.00;102156.59;5055320;28;45528;-76
2023/01/05 03:40:40;;;;;;;;;3.00;0.00;;;;;14.21;100.00;102155.69;5054309;28;45624;-75
2023/01/05 03:43:06;;;;;;;;;0.00;0.00;;;;;14.19;100.00;102160.09;5056594;28;45440;-75
2023/01/05 03:45:42;;;;;;;;;0.00;0.00;;;;;14.18;100.00;102153.00;5057513;28;51114;-75
2023/01/05 03:48:07;;;;;;;;;1.33;0.00;;;;;14.19;100.00;102156.56;5035386;28;45468;-75
2023/01/05 03:50:34;;;;;;;;;2.00;1.00;;;;;14.16;100.00;102155.63;5058902;28;45206;-75
2023/01/05 03:53:00;;;;;;;;;3.33;0.00;;;;;14.19;100.00;102160.09;5053917;28;45426;-74
2023/01/05 03:55:25;;;;;;;;;3.00;0.00;;;;;14.22;100.00;102167.22;5046150;28;45835;-76
2023/01/05 03:57:50;;;;;;;;;4.00;0.00;;;;;14.24;100.00;102171.72;5037567;28;56526;-74
2023/01/05 04:00:16;;;;;;;;;4.00;1.00;;;;;14.26;100.00;102175.28;5052481;28;45316;-75
2023/01/05 04:02:41;;;;;;;;;2.00;0.00;;;;;14.27;100.00;102170.84;5028776;28;45322;-74
2023/01/05 04:05:07;;;;;;;;;1.00;0.00;;;;;14.27;100.00;102176.16;5036113;28;46776;-74
2023/01/05 04:07:32;;;;;;;;;0.33;0.00;;;;;14.31;100.00;102168.28;5014652;28;45387;-76
2023/01/05 04:09:59;;;;;;;;;2.00;0.00;;;;;14.34;100.00;102170.13;5053343;28;51186;-75
2023/01/05 04:12:24;;;;;;;;;0.00;0.00;;;;;14.34;100.00;102162.13;5037255;28;45598;-76
2023/01/05 04:14:49;;;;;;;;;2.00;0.00;;;;;14.36;100.00;102161.28;5033383;28;55325;-75
2023/01/05 04:17:15;;;;;;;;;2.00;1.00;;;;;14.37;100.00;102160.41;5032117;28;59183;-76
2023/01/05 04:19:40;;;;;;;;;1.00;0.00;;;;;14.39;100.00;102161.34;5036010;28;47018;-75
2023/01/05 04:22:05;;;;;;;;;0.00;0.00;;;;;14.42;100.00;102157.81;5037598;28;45557;-75
2023/01/05 04:24:31;;;;;;;;;0.00;0.00;;;;;14.43;100.00;102162.28;5037129;28;50250;-75
2023/01/05 04:26:56;;;;;;;;;3.67;0.33;;;;;14.45;100.00;102163.22;5034452;28;45214;-77
2023/01/05 04:29:21;;;;;;;;;1.67;0.00;;;;;14.42;100.00;102160.47;5037912;28;45475;-75
2023/01/05 04:31:47;;;;;;;;;1.00;1.00;;;;;14.42;100.00;102155.16;5035375;28;49590;-77
2023/01/05 04:34:12;;;;;;;;;0.33;0.00;;;;;14.40;100.00;102162.25;5037730;28;48721;-74
2023/01/05 04:36:37;;;;;;;;;0.00;0.00;;;;;14.41;100.00;102169.34;5007878;28;60909;-75
2023/01/05 04:39:03;;;;;;;;;1.00;0.00;;;;;14.39;100.00;102171.09;5031698;28;49098;-76
2023/01/05 04:41:28;;;;;;;;;0.67;0.67;;;;;14.38;100.00;102158.63;5008544;28;45448;-76
2023/01/05 04:43:53;;;;;;;;;1.00;1.00;;;;;14.35;100.00;102159.50;5037010;28;58529;-74
2023/01/05 04:46:19;;;;;;;;;1.00;0.00;;;;;14.35;100.00;102169.25;5037069;28;45341;-75
2023/01/05 04:48:44;;;;;;;;;4.00;0.00;;;;;14.36;100.00;102165.72;5036295;28;54947;-75
2023/01/05 04:51:09;;;;;;;;;1.00;0.00;;;;;14.35;100.00;102166.59;5038563;28;45516;-75
2023/01/05 04:53:35;;;;;;;;;1.00;0.00;;;;;14.37;100.00;102159.50;5057463;28;55953;-75
2023/01/05 04:56:00;;;;;;;;;1.00;0.00;;;;;14.36;100.00;102155.97;5028296;28;59142;-78
2023/01/05 04:58:25;;;;;;;;;1.00;0.33;;;;;14.39;100.00;102155.13;5049446;28;52971;-74
2023/01/05 05:00:51;;;;;;;;;2.33;0.00;;;;;14.39;100.00;102153.38;5050712;28;48839;-77
2023/01/05 05:03:16;;;;;;;;;0.00;0.00;;;;;14.37;100.00;102157.75;5057242;28;56989;-75
2023/01/05 05:05:41;;;;;;;;;0.00;0.00;;;;;14.38;100.00;102153.31;5055818;28;46063;-76
2023/01/05 05:08:07;;;;;;;;;0.33;0.00;;;;;14.38;100.00;102153.31;5046933;28;50929;-75
2023/01/05 05:10:32;;;;;;;;;0.00;0.00;;;;;14.37;100.00;102155.09;5056811;28;49950;-76
2023/01/05 05:12:58;;;;;;;;;1.67;0.00;;;;;14.38;100.00;102145.34;5056567;28;51779;-76
2023/01/05 05:15:23;;;;;;;;;0.00;0.00;;;;;14.37;100.00;102144.47;5047877;28;58203;-76
2023/01/05 05:17:48;;;;;;;;;0.00;0.00;;;;;14.38;100.00;102159.56;5057003;28;53771;-74
2023/01/05 05:20:14;;;;;;;;;0.00;0.00;;;;;14.36;100.00;102144.44;5055493;28;45427;-75
2023/01/05 05:22:39;;;;;;;;;3.00;0.00;;;;;14.37;100.00;102149.78;5050456;28;46549;-75
2023/01/05 05:25:05;;;;;;;;;0.67;0.00;;;;;14.34;100.00;102151.50;5038331;28;58864;-76
2023/01/05 05:27:31;;;;;;;;;0.00;0.00;;;;;14.33;100.00;102149.72;5054895;28;45218;-76
2023/01/05 05:29:56;;;;;;;;;0.00;0.00;;;;;14.37;100.00;102151.53;5046974;28;45651;-75
2023/01/05 05:32:22;;;;;;;;;1.67;0.00;;;;;14.35;100.00;102155.94;5056869;28;45480;-75
2023/01/05 05:34:47;;;;;;;;;0.67;0.00;;;;;14.36;100.00;102148.00;5055701;28;45499;-75
2023/01/05 05:37:12;;;;;;;;;0.00;0.00;;;;;14.37;100.00;102156.84;5057150;28;52686;-77
2023/01/05 05:39:38;;;;;;;;;1.00;0.00;;;;;14.40;100.00;102163.13;5056368;28;51191;-76
2023/01/05 05:42:03;;;;;;;;;1.00;0.00;;;;;14.41;100.00;102161.38;5038299;28;61767;-76
2023/01/05 05:44:28;;;;;;;;;0.00;0.00;;;;;14.40;100.00;102156.91;5047308;28;45566;-75
2023/01/05 05:46:54;;;;;;;;;0.00;0.00;;;;;14.40;100.00;102159.56;5055486;28;55432;-77
2023/01/05 05:49:19;;;;;;;;;1.00;0.00;;;;;14.37;100.00;102154.19;5049100;28;46168;-75
2023/01/05 05:51:44;;;;;;;;;0.00;0.00;;;;;14.39;100.00;102163.13;5052638;28;60231;-76
2023/01/05 05:54:10;;;;;;;;;2.00;0.00;;;;;14.36;100.00;102160.38;5054776;28;45537;-75
2023/01/05 05:56:35;;;;;;;;;0.00;0.00;;;;;14.36;100.00;102169.25;5035987;28;45969;-75
2023/01/05 05:59:00;;;;;;;;;0.00;0.00;;;;;14.35;100.00;102169.25;5048232;28;45707;-76
2023/01/05 06:01:26;;;;;;;;;0.00;0.00;;;;;14.34;100.00;102176.31;5048997;28;46520;-75
2023/01/05 06:03:51;;;;;;;;;0.00;0.00;;;;;14.31;100.00;102164.72;5051332;28;45474;-77
2023/01/05 06:06:16;;;;;;;;;0.00;0.00;;;;;14.31;100.00;102167.38;5046774;28;48599;-74
2023/01/05 06:08:42;;;;;;;;;0.00;0.00;;;;;14.31;100.00;102175.34;5052971;28;45207;-76
2023/01/05 06:11:07;;;;;;;;;1.00;0.00;;;;;14.29;100.00;102180.66;5045761;28;60453;-75
2023/01/05 06:13:33;;;;;;;;;1.00;0.00;;;;;14.29;100.00;102180.66;5055050;28;58692;-77
2023/01/05 06:15:58;;;;;;;;;0.00;0.00;;;;;14.30;100.00;102192.19;5054070;28;54445;-77
2023/01/05 06:18:23;;;;;;;;;1.00;0.00;;;;;14.25;100.00;102178.81;5038630;28;45541;-76
2023/01/05 06:20:49;;;;;;;;;0.00;0.00;;;;;14.24;100.00;102185.00;5054915;28;45909;-75
2023/01/05 06:23:14;;;;;;;;;0.00;0.00;;;;;14.24;100.00;102192.97;5052619;28;45469;-75
2023/01/05 06:25:40;;;;;;;;;1.00;0.00;;;;;14.25;100.00;102193.84;5047664;28;45373;-75
2023/01/05 06:28:05;;;;;;;;;0.00;0.00;;;;;14.24;100.00;102186.75;5053954;28;45441;-75
2023/01/05 06:30:30;;;;;;;;;1.00;0.00;;;;;14.25;100.00;102193.84;5043971;28;46720;-75
2023/01/05 06:32:56;;;;;;;;;0.00;0.00;;;;;14.23;100.00;102184.97;5050235;28;45449;-75
2023/01/05 06:35:21;;;;;;;;;0.00;0.00;;;;;14.23;100.00;102191.19;5050909;28;45457;-75
2023/01/05 06:37:46;;;;;;;;;0.00;0.00;;;;;14.23;100.00;102185.88;5047776;28;54260;-75
2023/01/05 06:40:12;;;;;;;;;1.00;0.00;;;;;14.22;100.00;102188.47;5047268;28;54857;-75
2023/01/05 06:42:38;;;;;;;;;2.67;0.00;;;;;14.21;100.00;102192.91;5045590;28;45451;-73
2023/01/05 06:45:04;;;;;;;;;0.00;0.00;;;;;14.17;100.00;102185.75;5037263;28;45754;-72
2023/01/05 06:47:30;;;;;;;;;1.00;0.00;;;;;14.15;100.00;102204.31;5039770;28;45533;-76
2023/01/05 06:49:55;;;;;;;;;1.00;0.00;;;;;14.11;100.00;102201.56;5049587;28;55551;-72
2023/01/05 06:52:21;;;;;;;;;0.00;0.00;;;;;14.06;100.00;102209.47;5051001;28;45538;-75
2023/01/05 06:54:46;;;;;;;;;0.00;0.00;;;;;14.04;100.00;102203.22;5042124;28;45530;-72
2023/01/05 06:57:12;;;;;;;;;0.00;0.00;;;;;14.01;100.00;102208.50;5049338;28;46639;-72
2023/01/05 06:59:37;;;;;;;;;0.00;0.00;;;;;13.99;100.00;102211.97;5049920;28;48403;-70
2023/01/05 07:02:03;;;;;;;;;1.00;0.00;;;;;13.97;100.00;102217.25;5043921;28;45226;-70
2023/01/05 07:04:28;;;;;;;;;0.00;0.00;;;;;13.97;100.00;102208.41;5050787;28;45483;-73
2023/01/05 07:06:53;;;;;;;;;0.33;0.00;;;;;13.96;100.00;102206.63;5052251;28;45519;-72
2023/01/05 07:09:19;;;;;;;;;0.00;0.00;;;;;13.94;100.00;102211.88;5053639;28;46789;-72
2023/01/05 07:11:44;;;;;;;;;0.00;0.00;;;;;13.97;100.00;102217.25;5048308;28;53663;-78
2023/01/05 07:14:09;;;;;;;;;0.00;0.00;;;;;14.01;100.00;102219.13;5030496;28;50101;-74
2023/01/05 07:16:35;;;;;;;;;2.00;0.00;;;;;14.05;100.00;102218.28;5040243;28;51155;-75
2023/01/05 07:19:00;;;;;;;;;2.00;0.00;;;;;14.09;100.00;102214.81;5051159;28;57934;-74
2023/01/05 07:21:25;;;;;;;;;0.00;0.00;;;;;14.11;100.00;102213.13;5048891;28;57560;-75
2023/01/05 07:23:51;;;;;;;;;1.00;0.00;;;;;14.15;100.00;102220.25;5049569;28;49175;-77
2023/01/05 07:26:16;;;;;;;;;0.33;0.00;;;;;14.19;100.00;102218.56;5055736;28;49811;-76
2023/01/05 07:28:41;;;;;;;;;0.67;0.67;;;;;14.21;100.00;102219.47;5044135;28;51243;-75
2023/01/05 07:31:07;;;;;;;;;1.67;0.67;;;;;14.24;100.00;102223.94;5043830;28;57707;-75
2023/01/05 07:33:32;;;;;;;;;0.67;0.67;;;;;14.25;100.00;102228.38;5043036;28;45775;-75
2023/01/05 07:36:04;;;;;;;;;0.67;0.67;;;;;14.23;100.00;102216.84;5047726;28;45501;-74
2023/01/05 07:38:31;;;;;;;;;0.00;0.00;;;;;14.26;100.00;102222.22;5035267;28;46321;-75
2023/01/05 07:41:00;;;;;;;;;2.00;1.00;;;;;14.30;100.00;102214.31;5040706;28;45499;-74
2023/01/05 07:43:26;;;;;;;;;2.00;1.00;;;;;14.31;100.00;102224.06;5022003;28;45539;-75
2023/01/05 07:45:56;;;;;;;;;1.33;0.33;;;;;14.34;100.00;102221.50;5039117;28;45507;-73
2023/01/05 07:48:21;;;;;;;;;2.67;0.33;;;;;14.37;100.00;102220.63;5043009;28;46558;-74
2023/01/05 07:50:46;;;;;;;;;2.00;2.00;;;;;14.43;100.00;102220.72;5051297;28;45518;-73
2023/01/05 07:53:12;;;;;;;;;0.00;0.00;;;;;14.43;100.00;102210.09;5052840;28;53480;-73
2023/01/05 07:55:37;;;;;;;;;1.00;1.00;;;;;14.47;100.00;102221.69;5049670;28;46225;-73
2023/01/05 07:58:02;;;;;;;;;1.67;1.00;;;;;14.51;100.00;102220.91;5053639;28;46553;-74
2023/01/05 08:00:28;;;;;;;;;1.33;0.00;;;;;14.54;100.00;102223.59;5037434;28;51555;-74
2023/01/05 08:02:54;;;;;;;;;1.00;1.00;;;;;14.56;100.00;102219.25;5055988;28;45301;-74
2023/01/05 08:05:19;;;;;;;;;0.33;0.33;;;;;14.58;100.00;102223.69;5054022;28;48774;-73
2023/01/05 08:07:44;;;;;;;;;0.33;0.33;;;;;14.62;100.00;102233.50;5049005;28;56083;-73
2023/01/05 08:10:27;;;;;;;;;1.33;0.00;;;;;14.65;100.00;102227.38;5049578;28;45341;-73
2023/01/05 08:15:37;;;;;;;;;2.00;0.00;;;;;14.68;100.00;102230.94;5046930;28;45451;-75
2023/01/05 08:18:02;;;;;;;;;1.00;1.00;;;;;14.70;100.00;102232.75;5055555;28;45842;-73
2023/01/05 08:20:28;;;;;;;;;0.33;0.00;;;;;14.72;100.00;102234.56;5054179;28;45578;-72
2023/01/05 08:22:53;;;;;;;;;2.00;1.00;;;;;14.74;100.00;102237.25;5045027;28;45449;-72
2023/01/05 08:25:19;;;;;;;;;1.00;1.00;;;;;14.76;100.00;102239.06;5053709;28;45456;-75
2023/01/05 08:27:45;;;;;;;;;0.33;0.33;;;;;14.78;100.00;102239.09;5035659;28;46080;-73
2023/01/05 08:30:12;;;;;;;;;1.67;1.00;;;;;14.79;100.00;102243.53;5049938;28;45938;-74
2023/01/05 08:32:38;;;;;;;;;0.00;0.00;;;;;14.79;100.00;102232.91;5030321;28;45514;-75
2023/01/05 08:35:04;;;;;;;;;0.00;0.00;;;;;14.81;100.00;102236.50;5049320;28;45848;-73
2023/01/05 08:37:29;;;;;;;;;1.67;1.00;;;;;14.82;100.00;102240.94;5044594;28;45667;-75
2023/01/05 08:39:54;;;;;;;;;1.00;0.00;;;;;14.84;100.00;102231.22;5053244;28;47994;-75
2023/01/05 08:42:20;;;;;;;;;0.00;0.00;;;;;14.84;100.00;102233.88;5054936;28;47996;-74
2023/01/05 08:44:45;;;;;;;;;0.00;0.00;;;;;14.88;100.00;102241.03;5046384;28;45511;-73
2023/01/05 08:47:10;;;;;;;;;2.00;0.33;;;;;14.90;100.00;102239.28;5048993;28;57278;-73
2023/01/05 08:49:36;;;;;;;;;1.00;1.00;;;;;14.92;100.00;102246.44;5047109;28;61014;-75
2023/01/05 08:52:01;;;;;;;;;2.00;0.00;;;;;14.96;100.00;102242.03;5186467;22;51116;-75
2023/01/05 08:54:26;;;;;;;;;0.00;0.00;;;;;14.99;100.00;102236.78;5085425;27;45338;-73
2023/01/05 08:56:52;;;;;;;;;0.00;0.00;;;;;15.03;100.00;102243.03;5096809;27;45882;-74
2023/01/05 08:59:17;;;;;;;;;0.00;0.00;;;;;15.06;100.00;102233.31;5108826;27;57531;-74
2023/01/05 09:01:43;;;;;;;;;0.33;0.33;;;;;15.08;100.00;102242.25;5099970;27;57159;-72
2023/01/05 09:04:08;;;;;;;;;0.00;0.00;;;;;15.10;100.00;102247.56;5092148;27;45527;-72
2023/01/05 09:06:34;;;;;;;;;0.00;0.00;;;;;15.10;100.00;102232.50;5093711;27;45825;-74
2023/01/05 09:08:59;;;;;;;;;0.00;0.00;;;;;15.13;100.00;102234.34;5096416;27;45490;-71
2023/01/05 09:11:25;;;;;;;;;0.00;0.00;;;;;15.11;100.00;102241.38;5090234;27;45449;-72
2023/01/05 09:13:53;;;;;;;;;0.00;0.00;;;;;15.12;100.00;102237.84;5087551;27;45904;-71
2023/01/05 09:16:28;;;;;;;;;0.00;0.00;;;;;15.16;100.00;102239.69;5087259;27;46729;-72
2023/01/05 09:18:53;;;;;;;;;0.00;0.00;;;;;15.14;100.00;102239.66;5088195;27;45627;-73
2023/01/05 09:21:18;;;;;;;;;0.00;0.00;;;;;15.20;100.00;102249.50;5083660;27;45517;-74
2023/01/05 09:23:44;;;;;;;;;0.33;0.33;;;;;15.19;100.00;102247.72;5103548;27;45416;-74
2023/01/05 09:26:12;;;;;;;;;0.00;0.00;;;;;15.19;100.00;102235.31;5087077;27;46568;-72
2023/01/05 09:28:38;;;;;;;;;0.00;0.00;;;;;15.23;100.00;102248.63;5103348;27;45441;-73
2023/01/05 09:31:14;;;;;;;;;0.67;0.00;;;;;15.26;100.00;102243.38;5084304;27;47390;-73
2023/01/05 09:33:40;;;;;;;;;0.00;0.00;;;;;15.30;100.00;102250.53;5088562;27;45577;-72
2023/01/05 09:36:07;;;;;;;;;0.00;0.00;;;;;15.31;100.00;102245.22;5096830;22;46188;-74
2023/01/05 09:38:32;;;;;;;;;1.00;0.00;;;;;15.31;100.00;102247.88;5086687;22;45563;-72
2023/01/05 09:41:03;;;;;;;;;0.00;0.00;;;;;15.36;100.00;102250.63;5073951;28;45478;-73
2023/01/05 09:43:36;;;;;;;;;0.00;0.00;;;;;15.36;100.00;102246.19;5071545;27;45580;-72
2023/01/05 09:46:05;;;;;;;;;0.00;0.00;;;;;15.40;100.00;102252.44;5073859;28;46183;-72
2023/01/05 09:48:37;;;;;;;;;1.00;0.00;;;;;15.44;100.00;102263.13;5086326;27;45480;-72
2023/01/05 09:51:02;;;;;;;;;0.00;0.00;;;;;15.44;100.00;102254.25;5071290;27;45512;-72
2023/01/05 09:53:29;;;;;;;;;2.00;2.00;;;;;15.48;100.00;102258.75;5066631;27;48197;-72
2023/01/05 09:55:55;;;;;;;;;0.00;0.00;;;;;15.54;100.00;102260.59;5071685;27;46506;-72
2023/01/05 09:58:25;;;;;;;;;0.00;0.00;;;;;15.56;100.00;102259.78;5080714;27;45659;-72
2023/01/05 10:01:05;;;;;;;;;2.00;0.00;;;;;15.60;100.00;102260.69;5068286;28;45530;-73
2023/01/05 10:03:35;;;;;;;;;0.33;0.00;;;;;15.63;100.00;102267.00;5074050;28;45583;-73
2023/01/05 10:06:01;;;;;;;;;0.00;0.00;;;;;15.66;100.00;102258.16;5063767;28;46558;-72
2023/01/05 10:08:33;;;;;;;;;0.00;0.00;;;;;15.69;100.00;102269.72;5072424;28;49467;-74
2023/01/05 10:14:21;;;;;;;;;2.33;0.00;;;;;15.67;100.00;102265.28;5085667;27;45455;-73
2023/01/05 10:16:46;;;;;;;;;0.00;0.00;;;;;15.66;100.00;102267.03;5058884;28;45532;-73
2023/01/05 10:19:18;;;;;;;;;0.00;0.00;;;;;15.65;100.00;102267.00;5086025;27;48265;-73
2023/01/05 10:22:05;;;;;;;;;0.00;0.00;;;;;15.66;100.00;102267.03;5070899;28;45572;-72
2023/01/05 10:24:52;;;;;;;;;0.00;0.00;;;;;15.62;100.00;102269.59;5087503;27;45586;-73
2023/01/05 10:27:29;;;;;;;;;0.00;0.00;;;;;15.61;100.00;102271.38;5068817;28;46700;-75
2023/01/05 10:30:42;;;;;;;;;0.00;0.00;;;;;15.61;100.00;102263.38;5082645;27;45799;-72
2023/01/05 10:33:38;;;;;;;;;1.00;0.00;;;;;15.64;100.00;102268.78;5058696;28;45536;-73
2023/01/05 10:36:17;;;;;;;;;1.67;0.00;;;;;15.68;100.00;102264.41;5073673;27;46401;-72
2023/01/05 10:38:56;;;;;;;;;0.00;0.00;;;;;15.75;100.00;102262.69;5063993;28;46780;-71
2023/01/05 10:41:53;;;;;;;;;2.00;0.00;;;;;15.78;100.00;102260.09;5063949;28;45685;-72
2023/01/05 10:44:58;;;;;;;;;0.00;0.00;;;;;15.84;100.00;102253.06;5069716;28;45511;-73
2023/01/05 10:47:25;;;;;;;;;0.00;0.00;;;;;15.87;100.00;102255.75;5086791;27;45372;-72
2023/01/05 10:49:51;;;;;;;;;0.00;0.00;;;;;15.87;100.00;102244.19;5069898;28;46122;-73
2023/01/05 10:52:18;;;;;;;;;0.00;0.00;;;;;15.88;100.00;102246.91;5069574;28;61559;-73
2023/01/05 10:54:47;;;;;;;;;0.00;0.00;;;;;15.90;100.00;102244.25;5066454;28;45491;-72
2023/01/05 10:57:27;;;;;;;;;0.67;0.00;;;;;15.94;100.00;102240.75;5076635;27;45496;-73
2023/01/05 11:00:18;;;;;;;;;0.00;0.00;;;;;15.96;100.00;102231.88;5075914;28;46687;-71
2023/01/05 11:03:00;;;;;;;;;0.67;0.00;;;;;16.02;100.00;102230.16;5073685;27;45429;-74
2023/01/05 11:05:37;;;;;;;;;0.00;0.00;;;;;16.07;100.00;102226.66;5074694;28;45305;-73
2023/01/05 11:08:05;;;;;;;;;0.67;0.00;;;;;16.05;100.00;102216.88;5072921;27;45576;-74
2023/01/05 11:10:34;;;;;;;;;0.00;0.00;;;;;16.07;100.00;102216.00;5086163;27;46887;-73
2023/01/05 11:13:05;;;;;;;;;0.00;0.00;;;;;16.10;100.00;102213.38;5072572;28;45267;-72
2023/01/05 11:15:34;;;;;;;;;0.00;0.00;;;;;16.10;100.00;102208.06;5073759;28;45513;-73
2023/01/05 11:17:59;;;;;;;;;0.00;0.00;;;;;16.12;100.00;102208.06;5087436;27;45484;-74
2023/01/05 11:20:27;;;;;;;;;0.00;0.00;;;;;16.09;100.00;102208.94;5066633;28;45639;-73
2023/01/05 11:22:53;;;;;;;;;0.00;0.00;;;;;16.08;100.00;102206.25;5082083;27;45434;-73
2023/01/05 11:25:26;;;;;;;;;1.00;1.00;;;;;16.02;100.00;102195.53;5075788;27;45535;-73
2023/01/05 11:28:17;;;;;;;;;0.00;0.00;;;;;16.03;100.00;102202.63;5082616;27;45557;-73
2023/01/05 11:31:00;;;;;;;;;0.33;0.33;;;;;16.02;100.00;102209.72;5070754;28;45841;-72
2023/01/05 11:33:28;;;;;;;;;1.00;1.00;;;;;16.03;100.00;102197.31;5090536;27;45581;-75
2023/01/05 11:35:54;;;;;;;;;2.00;1.00;;;;;16.01;100.00;102199.06;5068239;28;45474;-72
2023/01/05 11:38:25;;;;;;;;;0.00;0.00;;;;;16.02;100.00;102198.19;5072077;28;45344;-73
2023/01/05 11:40:51;;;;;;;;;0.00;0.00;;;;;16.02;100.00;102190.19;5082088;27;46373;-73
2023/01/05 11:43:19;;;;;;;;;0.00;0.00;;;;;16.01;100.00;102197.28;5069534;28;45360;-73
2023/01/05 11:45:51;;;;;;;;;0.00;0.00;;;;;15.98;100.00;102189.28;5064216;28;45566;-71
2023/01/05 11:48:20;;;;;;;;;0.00;0.00;;;;;15.95;100.00;102184.81;5079860;27;45359;-73
2023/01/05 11:50:50;;;;;;;;;0.00;0.00;;;;;15.95;100.00;102191.91;5061968;28;46926;-72
2023/01/05 11:53:36;;;;;;;;;0.00;0.00;;;;;15.93;100.00;102191.00;5089954;27;45477;-72
2023/01/05 11:56:07;;;;;;;;;1.33;0.33;;;;;15.93;100.00;102191.00;5059380;28;45402;-72
2023/01/05 11:58:40;;;;;;;;;2.00;1.00;;;;;15.89;100.00;102194.50;5062302;28;45466;-74
2023/01/05 12:01:06;;;;;;;;;0.00;0.00;;;;;15.84;100.00;102180.25;5071158;28;45624;-71